Time;durP1;ratioP1;P1;durP2;ratioP2;P2;SDS_P1;SDS_P2;PMS_P1;PMS_P2;Temp;Humidity;BMP_temperature;BMP_pressure;BME280_temperature;BME280_humidity;BME280_pressure;Samples;Min_cycle;Max_cycle;Signal;HPM_P1;HPM_P2
2021/08/04 00:00:30;;;;;;;4.35;3.38;;;16.10;99.90;;;16.81;91.41;97759.72;5242981;28;20231;-56
2021/08/04 00:03:03;;;;;;;3.65;3.35;;;16.10;99.90;;;16.81;91.05;97762.31;5246047;28;20664;-52
2021/08/04 00:05:38;;;;;;;3.60;3.28;;;16.00;99.90;;;16.79;91.05;97764.84;5247866;28;20244;-53
2021/08/04 00:08:11;;;;;;;3.45;3.22;;;16.00;99.90;;;16.77;90.32;97781.09;5248070;28;20206;-50
2021/08/04 00:10:44;;;;;;;3.42;3.13;;;16.00;99.90;;;16.74;91.11;97765.47;5248125;28;20243;-55
2021/08/04 00:13:17;;;;;;;3.80;3.47;;;16.00;99.90;;;16.74;91.15;97766.38;5248219;28;20291;-52
2021/08/04 00:15:50;;;;;;;3.50;3.20;;;16.00;99.90;;;16.78;91.24;97769.97;5247991;28;20688;-57
2021/08/04 00:18:23;;;;;;;3.60;3.30;;;16.00;99.90;;;16.75;90.80;97762.09;5247022;28;20626;-53
2021/08/04 00:20:58;;;;;;;3.42;3.20;;;16.00;99.90;;;16.74;89.91;97765.47;5248000;28;20220;-51
2021/08/04 00:23:31;;;;;;;3.53;3.30;;;15.90;99.90;;;16.78;89.91;97769.97;5248154;28;20192;-57
2021/08/04 00:26:04;;;;;;;3.58;3.28;;;16.00;99.90;;;16.70;90.10;97768.81;5247944;28;20196;-54
2021/08/04 00:28:37;;;;;;;3.28;3.08;;;15.90;99.90;;;16.66;88.96;97768.72;5246969;28;20203;-56
2021/08/04 00:31:10;;;;;;;3.38;3.10;;;15.90;99.90;;;16.69;88.82;97767.06;5247507;28;20731;-53
2021/08/04 00:33:44;;;;;;;3.28;3.05;;;15.90;99.90;;;16.63;87.03;97766.03;5247819;28;20204;-54
2021/08/04 00:36:18;;;;;;;3.50;3.20;;;15.90;99.90;;;16.59;87.48;97755.56;5242226;28;20243;-52
2021/08/04 00:38:51;;;;;;;3.30;3.10;;;15.90;99.90;;;16.57;87.11;97762.41;5247896;28;20200;-56
2021/08/04 00:41:24;;;;;;;3.10;2.80;;;15.90;99.90;;;16.48;86.98;97772.41;5246682;28;20239;-54
2021/08/04 00:43:57;;;;;;;3.28;2.95;;;15.80;99.90;;;16.44;87.55;97761.97;5247443;28;20196;-51
2021/08/04 00:46:31;;;;;;;3.10;2.85;;;15.80;99.90;;;16.38;85.65;97751.47;5245744;28;20204;-57
2021/08/04 00:49:04;;;;;;;3.58;3.28;;;15.80;99.90;;;16.37;86.31;97756.59;5247590;28;20287;-56
2021/08/04 00:51:38;;;;;;;3.60;3.35;;;15.80;99.90;;;16.31;87.14;97753.78;5246784;28;20742;-54
2021/08/04 00:54:12;;;;;;;3.28;2.97;;;15.70;99.90;;;16.33;87.45;97762.47;5244036;28;20204;-52
2021/08/04 00:56:45;;;;;;;3.40;3.10;;;15.70;99.90;;;16.32;87.60;97756.44;5245295;28;20238;-51
2021/08/04 00:59:18;;;;;;;2.92;2.72;;;15.70;99.90;;;16.30;86.94;97752.03;5246965;28;20200;-55
2021/08/04 01:01:58;;;;;;;3.50;3.20;;;15.70;99.90;;;16.27;87.63;97751.94;5246551;28;20224;-54
2021/08/04 01:04:36;;;;;;;3.30;3.05;;;15.70;99.90;;;16.29;87.75;97751.19;5246136;28;20710;-53
2021/08/04 01:07:19;;;;;;;5.32;3.33;;;15.70;99.90;;;16.29;90.16;97755.47;5245966;28;20197;-54
2021/08/04 01:09:58;;;;;;;3.70;3.40;;;15.60;99.90;;;16.34;89.94;97759.03;5226289;28;20231;-56
2021/08/04 01:12:38;;;;;;;4.07;3.67;;;15.60;99.90;;;16.27;90.69;97757.09;5241560;28;20208;-54
2021/08/04 01:15:13;;;;;;;3.17;2.92;;;15.60;99.90;;;16.27;90.64;97747.66;5246643;28;20294;-55
2021/08/04 01:17:50;;;;;;;3.30;3.10;;;15.60;99.90;;;16.30;90.75;97750.34;5246527;28;20325;-56
2021/08/04 01:20:26;;;;;;;3.55;3.28;;;15.60;99.90;;;16.34;91.17;97753.88;5246799;28;20223;-53
2021/08/04 01:23:23;;;;;;;3.55;3.25;;;15.60;99.90;;;16.30;91.01;97747.75;5246096;28;20210;-58
2021/08/04 01:26:01;;;;;;;3.58;3.10;;;15.50;99.90;;;16.27;91.04;97741.63;5242327;28;20280;-52
2021/08/04 01:28:40;;;;;;;4.25;3.35;;;15.50;99.90;;;16.30;91.90;97752.03;5243913;28;20206;-54
2021/08/04 01:31:17;;;;;;;3.55;3.25;;;15.60;99.90;;;16.24;91.85;97747.56;5245147;28;20527;-53
2021/08/04 01:33:53;;;;;;;3.42;3.13;;;15.50;99.90;;;16.20;91.51;97749.16;5246216;28;20196;-55
2021/08/04 01:36:27;;;;;;;3.75;3.45;;;15.50;99.90;;;16.11;90.90;97735.97;5246411;28;20226;-54
2021/08/04 01:39:05;;;;;;;3.88;3.58;;;15.40;99.90;;;16.11;91.07;97735.97;5245660;28;20227;-53
2021/08/04 01:41:40;;;;;;;3.40;3.10;;;15.40;99.90;;;16.15;91.07;97740.41;5245360;28;20220;-55
2021/08/04 01:44:16;;;;;;;3.40;3.10;;;15.40;99.90;;;16.15;91.13;97742.97;5246516;28;20679;-56
2021/08/04 01:46:49;;;;;;;3.53;3.17;;;15.40;99.90;;;16.17;90.76;97745.63;5242044;28;20207;-54
2021/08/04 01:49:23;;;;;;;3.35;3.15;;;15.50;99.90;;;16.22;91.04;97738.88;5246338;28;20210;-55
2021/08/04 01:51:57;;;;;;;3.55;3.25;;;15.50;99.90;;;16.24;90.65;97744.97;5245512;28;20227;-53
2021/08/04 01:54:32;;;;;;;3.15;2.95;;;15.50;99.90;;;16.21;90.64;97738.00;5245756;28;20210;-56
2021/08/04 01:57:07;;;;;;;4.15;3.13;;;15.50;99.90;;;16.21;90.69;97740.59;5241081;28;20247;-54
2021/08/04 01:59:42;;;;;;;3.20;2.70;;;15.50;99.90;;;16.27;90.64;97741.63;5246312;28;20673;-54
2021/08/04 02:02:17;;;;;;;3.38;3.17;;;15.50;99.90;;;16.23;90.89;97738.09;5246139;28;20200;-54
2021/08/04 02:04:52;;;;;;;3.47;3.22;;;15.50;99.90;;;16.24;91.15;97744.97;5246868;28;20204;-53
2021/08/04 02:07:48;;;;;;;3.35;3.00;;;15.50;99.90;;;16.24;90.83;97742.41;5245371;28;20196;-53
2021/08/04 02:10:28;;;;;;;3.13;2.90;;;15.40;99.90;;;16.18;91.06;97742.19;5245578;28;20242;-53
2021/08/04 02:13:10;;;;;;;3.20;3.00;;;15.40;99.90;;;16.19;91.02;97741.38;5245397;28;20203;-54
2021/08/04 02:15:48;;;;;;;3.47;3.17;;;15.40;99.90;;;16.17;90.98;97745.63;5246559;28;20204;-51
2021/08/04 02:18:29;;;;;;;3.35;3.15;;;15.40;99.90;;;16.14;91.18;97755.84;5246011;28;20418;-56
2021/08/04 02:21:03;;;;;;;3.42;3.20;;;15.30;99.90;;;16.13;91.46;97752.34;5245576;28;20246;-57
2021/08/04 02:23:39;;;;;;;3.20;3.00;;;15.40;99.90;;;16.14;91.52;97743.81;5245808;28;20203;-53
2021/08/04 02:26:16;;;;;;;3.67;3.38;;;15.30;99.90;;;16.12;91.04;97740.28;5248065;28;20196;-52
2021/08/04 02:28:54;;;;;;;3.33;3.13;;;15.30;99.90;;;16.06;90.51;97742.69;5250153;28;20202;-54
2021/08/04 02:31:29;;;;;;;4.13;3.20;;;15.20;99.90;;;16.06;90.70;97737.53;5249943;28;20227;-50
2021/08/04 02:34:03;;;;;;;4.05;3.17;;;15.30;99.90;;;16.08;90.95;97751.34;5250017;28;20200;-54
2021/08/04 02:36:36;;;;;;;4.25;3.20;;;15.30;99.90;;;16.10;91.41;97736.78;5250091;28;20207;-52
2021/08/04 02:39:09;;;;;;;3.25;3.05;;;15.30;99.90;;;16.13;91.43;97734.31;5248883;28;20201;-57
2021/08/04 02:41:44;;;;;;;3.47;3.10;;;15.30;99.90;;;16.14;91.15;97736.06;5246466;28;20224;-55
2021/08/04 02:44:17;;;;;;;3.38;3.08;;;15.30;99.90;;;16.12;91.00;97727.41;5249583;28;20532;-54
2021/08/04 02:46:52;;;;;;;3.55;3.25;;;15.30;99.90;;;16.09;90.73;97729.88;5249794;28;20559;-55
2021/08/04 02:49:25;;;;;;;3.70;3.25;;;15.30;99.90;;;16.07;90.50;97731.53;5250101;28;20581;-52
2021/08/04 02:51:59;;;;;;;3.15;2.95;;;15.20;99.90;;;16.03;90.92;97727.09;5250016;28;20223;-51
2021/08/04 02:54:32;;;;;;;3.50;3.03;;;15.20;99.90;;;16.04;90.76;97723.69;5249077;28;20575;-52
2021/08/04 02:57:07;;;;;;;3.35;3.05;;;15.20;99.90;;;16.03;90.57;97724.53;5249087;28;20232;-55
2021/08/04 02:59:40;;;;;;;3.28;2.97;;;15.20;99.90;;;15.99;90.72;97725.22;5247509;28;20196;-52
2021/08/04 03:02:15;;;;;;;3.13;2.80;;;15.20;99.90;;;15.97;90.25;97724.31;5248942;28;20200;-51
2021/08/04 03:04:48;;;;;;;3.85;2.88;;;15.10;99.90;;;15.95;90.71;97733.69;5248062;28;20189;-53
2021/08/04 03:07:21;;;;;;;3.30;3.10;;;15.10;99.90;;;15.93;90.38;97725.03;5249300;28;20209;-52
2021/08/04 03:09:54;;;;;;;3.50;3.20;;;15.10;99.90;;;15.94;90.36;97722.53;5249184;28;20224;-50
2021/08/04 03:12:27;;;;;;;3.63;3.33;;;15.10;99.90;;;15.94;90.76;97732.84;5249763;28;20207;-51
2021/08/04 03:15:00;;;;;;;3.15;2.95;;;15.10;99.90;;;15.92;90.99;97719.00;5248681;28;20200;-50
2021/08/04 03:17:34;;;;;;;3.60;3.30;;;15.10;99.90;;;15.87;90.76;97722.25;5248735;28;20228;-51
2021/08/04 03:20:09;;;;;;;3.53;3.22;;;15.10;99.90;;;15.85;90.94;97721.31;5248711;28;20216;-51
2021/08/04 03:22:45;;;;;;;3.60;3.30;;;15.00;99.90;;;15.82;91.71;97718.63;5236375;28;20197;-51
2021/08/04 03:25:19;;;;;;;3.65;3.35;;;15.00;99.90;;;15.79;91.81;97719.41;5245293;28;20601;-51
2021/08/04 03:27:52;;;;;;;3.33;2.97;;;15.00;99.90;;;15.81;91.94;97715.19;5248998;28;20196;-51
2021/08/04 03:30:26;;;;;;;3.70;3.40;;;15.00;99.90;;;15.81;92.24;97715.19;5248606;28;20236;-51
2021/08/04 03:33:00;;;;;;;3.88;3.58;;;15.00;99.90;;;15.81;91.77;97716.88;5248401;28;20296;-51
2021/08/04 03:35:33;;;;;;;3.50;3.28;;;15.00;99.90;;;15.78;92.37;97722.81;5248544;28;20206;-50
2021/08/04 03:38:06;;;;;;;3.20;3.00;;;15.00;99.90;;;15.80;92.07;97723.75;5248517;28;20224;-55
2021/08/04 03:40:39;;;;;;;3.60;3.25;;;15.00;99.90;;;15.73;93.18;97717.50;5250192;28;20229;-53
2021/08/04 03:43:12;;;;;;;3.78;3.47;;;15.00;99.90;;;15.74;93.20;97724.41;5248304;28;20675;-50
2021/08/04 03:45:45;;;;;;;3.78;3.33;;;15.00;99.90;;;15.76;93.10;97720.16;5248626;28;20201;-50
2021/08/04 03:48:21;;;;;;;3.58;3.28;;;15.00;99.90;;;15.81;93.05;97727.19;5248643;28;20201;-55
2021/08/04 03:50:54;;;;;;;3.95;3.63;;;15.00;99.90;;;15.85;92.77;97721.31;5248292;28;20226;-50
2021/08/04 03:53:27;;;;;;;3.65;3.40;;;15.00;99.90;;;15.84;92.65;97722.16;5247978;28;20590;-51
2021/08/04 03:56:00;;;;;;;3.70;3.40;;;15.00;99.90;;;15.88;92.49;97721.41;5247396;28;20196;-53
2021/08/04 03:58:33;;;;;;;3.70;3.40;;;15.00;99.90;;;15.87;92.46;97719.66;5227447;28;20713;-53
2021/08/04 04:01:06;;;;;;;3.72;3.40;;;15.00;99.90;;;15.85;92.61;97716.16;5242611;28;20255;-52
2021/08/04 04:03:41;;;;;;;3.25;3.05;;;15.00;99.90;;;15.82;92.78;97718.63;5244940;28;20699;-53
2021/08/04 04:06:14;;;;;;;3.45;3.25;;;15.00;99.90;;;15.81;93.00;97724.63;5247922;28;20210;-56
2021/08/04 04:08:47;;;;;;;3.33;3.03;;;15.00;99.90;;;15.82;92.83;97726.38;5248021;28;20197;-55
2021/08/04 04:11:20;;;;;;;3.65;3.30;;;15.00;99.90;;;15.85;91.79;97729.03;5247344;28;20224;-52
2021/08/04 04:13:53;;;;;;;4.35;3.15;;;15.00;99.90;;;15.84;91.82;97719.56;5248147;28;20287;-55
2021/08/04 04:16:26;;;;;;;3.45;3.15;;;15.00;99.90;;;15.85;91.56;97721.31;5247605;28;20227;-53
2021/08/04 04:19:01;;;;;;;3.30;3.00;;;15.00;99.90;;;15.87;91.38;97727.41;5247401;28;20711;-56
2021/08/04 04:21:34;;;;;;;3.45;3.25;;;15.00;99.90;;;15.85;91.38;97724.78;5247822;28;20601;-51
2021/08/04 04:24:07;;;;;;;3.30;3.10;;;15.00;99.90;;;15.84;91.20;97729.88;5247959;28;20196;-52
2021/08/04 04:26:40;;;;;;;3.03;2.83;;;15.00;99.90;;;15.87;91.05;97729.97;5245563;28;20564;-55
2021/08/04 04:29:13;;;;;;;3.15;2.95;;;14.90;99.90;;;15.83;90.74;97728.13;5247407;28;20575;-55
2021/08/04 04:31:46;;;;;;;3.58;3.22;;;14.90;99.90;;;15.78;90.34;97733.13;5247538;28;20231;-53
2021/08/04 04:34:21;;;;;;;3.10;2.90;;;14.90;99.90;;;15.77;90.73;97734.84;5247404;28;20266;-55
2021/08/04 04:36:54;;;;;;;3.47;3.22;;;14.90;99.90;;;15.82;90.83;97731.53;5244438;28;20232;-58
2021/08/04 04:39:27;;;;;;;4.90;3.15;;;15.00;99.90;;;15.85;90.74;97737.69;5246613;28;20224;-56
2021/08/04 04:42:00;;;;;;;3.55;3.30;;;14.90;99.90;;;15.81;91.07;97732.34;5246381;28;20197;-53
2021/08/04 04:44:33;;;;;;;5.18;3.35;;;14.90;99.90;;;15.81;91.16;97729.78;5247187;28;20204;-55
2021/08/04 04:47:06;;;;;;;3.50;3.20;;;15.00;99.90;;;15.77;90.94;97732.25;5246528;28;20254;-52
2021/08/04 04:49:41;;;;;;;3.38;3.05;;;14.90;99.90;;;15.80;90.51;97731.47;5245736;28;20906;-53
2021/08/04 04:52:14;;;;;;;3.22;3.00;;;14.80;99.90;;;15.71;90.66;97729.47;5246052;28;20203;-57
2021/08/04 04:54:47;;;;;;;3.70;3.28;;;14.80;99.90;;;15.75;90.76;97730.44;5246514;28;20203;-56
2021/08/04 04:57:20;;;;;;;3.40;3.10;;;14.90;99.90;;;15.81;90.62;97733.22;5241515;28;20201;-54
2021/08/04 04:59:53;;;;;;;3.58;3.28;;;14.90;99.90;;;15.87;90.80;97736.00;5245827;28;20224;-56
2021/08/04 05:02:26;;;;;;;3.13;2.92;;;15.00;99.90;;;15.91;90.51;97736.97;5244663;28;20200;-60
2021/08/04 05:05:01;;;;;;;3.55;3.22;;;15.00;99.90;;;15.92;90.06;97731.88;5246797;28;20197;-60
2021/08/04 05:07:34;;;;;;;3.05;2.85;;;15.00;99.90;;;15.94;90.07;97744.84;5245170;28;20206;-61
2021/08/04 05:10:08;;;;;;;2.90;2.70;;;15.00;99.90;;;15.90;90.83;97736.09;5246456;28;20220;-61
2021/08/04 05:12:41;;;;;;;3.65;3.33;;;15.10;99.90;;;15.92;90.28;97742.19;5246555;28;20675;-61
2021/08/04 05:15:15;;;;;;;3.85;3.20;;;15.00;99.90;;;16.02;90.15;97738.22;5244925;28;20207;-62
2021/08/04 05:17:48;;;;;;;3.55;3.25;;;15.10;99.90;;;16.03;89.69;97740.00;5242915;28;20204;-59
2021/08/04 05:20:23;;;;;;;3.38;3.17;;;15.10;99.90;;;16.03;89.35;97740.00;5231369;28;20223;-61
2021/08/04 05:22:56;;;;;;;3.55;3.17;;;15.10;99.90;;;16.04;90.08;97740.88;5243124;28;20203;-60
2021/08/04 05:25:29;;;;;;;3.30;3.10;;;15.20;99.90;;;16.06;89.34;97745.25;5244048;28;20193;-61
2021/08/04 05:28:02;;;;;;;3.70;3.40;;;15.20;99.90;;;16.10;89.30;97744.53;5243060;28;20216;-60
2021/08/04 05:30:35;;;;;;;3.78;3.47;;;15.20;99.90;;;16.17;88.95;97751.66;5245000;28;20229;-59
2021/08/04 05:33:08;;;;;;;3.50;3.30;;;15.20;99.90;;;16.24;88.82;97752.72;5244951;28;20594;-61
2021/08/04 05:35:43;;;;;;;3.38;3.08;;;15.30;99.90;;;16.27;88.69;97742.50;5245374;28;20560;-62
2021/08/04 05:38:16;;;;;;;5.13;3.65;;;15.40;99.90;;;16.34;89.19;97748.72;5240577;28;20208;-60
2021/08/04 05:40:49;;;;;;;4.18;3.80;;;15.40;99.90;;;16.44;88.40;97750.78;5225682;28;20235;-61
2021/08/04 05:43:22;;;;;;;3.67;3.38;;;15.50;99.90;;;16.38;88.29;97754.03;5225383;28;20200;-60
2021/08/04 05:45:55;;;;;;;3.90;3.60;;;15.50;99.90;;;16.55;88.32;97752.00;5244299;28;20196;-62
2021/08/04 05:48:28;;;;;;;3.40;3.10;;;15.60;99.90;;;16.67;87.17;97744.66;5242659;28;20236;-60
2021/08/04 05:51:03;;;;;;;4.30;3.88;;;15.70;99.90;;;16.78;86.33;97751.91;5227316;28;20228;-62
2021/08/04 05:53:36;;;;;;;3.72;3.53;;;15.80;99.90;;;16.89;86.14;97746.22;5245346;28;20199;-59
2021/08/04 05:56:09;;;;;;;3.72;3.40;;;15.90;99.90;;;17.06;84.78;97751.91;5244986;28;20204;-61
2021/08/04 05:58:42;;;;;;;3.47;3.17;;;15.90;99.90;;;17.22;83.59;97744.59;5243241;28;20205;-60
2021/08/04 06:01:15;;;;;;;3.75;3.50;;;16.10;99.90;;;17.33;82.78;97738.03;5246916;28;20311;-60
2021/08/04 06:03:48;;;;;;;4.00;3.40;;;16.10;99.90;;;17.46;82.78;97737.53;5247709;28;20200;-62
2021/08/04 06:06:22;;;;;;;3.80;3.40;;;16.30;99.90;;;17.54;81.98;97730.88;5232228;28;20188;-63
2021/08/04 06:08:56;;;;;;;4.22;3.92;;;16.30;99.90;;;17.57;80.65;97730.09;5249592;28;20251;-58
2021/08/04 06:11:29;;;;;;;4.10;3.70;;;16.40;99.90;;;17.92;81.11;97733.66;5250734;28;20222;-61
2021/08/04 06:14:02;;;;;;;3.42;3.20;;;16.70;99.90;;;18.23;78.94;97734.44;5248735;28;20192;-61
2021/08/04 06:16:35;;;;;;;3.58;3.28;;;17.00;99.90;;;18.30;78.36;97733.75;5248401;28;20204;-61
2021/08/04 06:19:08;;;;;;;3.22;3.03;;;17.10;99.90;;;18.26;77.97;97734.50;5249184;28;20227;-61
2021/08/04 06:21:43;;;;;;;3.55;3.22;;;17.10;99.90;;;18.33;77.69;97733.81;5248329;28;20600;-62
2021/08/04 06:24:16;;;;;;;3.33;3.10;;;17.20;99.90;;;18.56;76.68;97730.91;5248376;28;20200;-62
2021/08/04 06:26:49;;;;;;;3.40;3.10;;;17.30;99.90;;;18.86;75.74;97731.66;5248373;28;20291;-62
2021/08/04 06:29:22;;;;;;;3.85;3.22;;;17.50;99.90;;;19.05;74.14;97738.09;5248632;28;20196;-63
2021/08/04 06:31:55;;;;;;;3.22;2.92;;;17.60;99.90;;;19.49;72.28;97734.69;5248111;28;20220;-61
2021/08/04 06:34:28;;;;;;;3.35;2.95;;;17.90;99.90;;;19.88;69.41;97738.91;5248286;28;20656;-62
2021/08/04 06:37:03;;;;;;;4.63;3.10;;;18.20;99.90;;;20.24;67.27;97738.69;5248404;28;20303;-62
2021/08/04 06:39:36;;;;;;;2.90;2.70;;;18.30;99.90;;;20.46;66.92;97746.00;5248373;28;20273;-61
2021/08/04 06:42:19;;;;;;;3.08;2.78;;;18.60;99.90;;;21.27;65.16;97742.84;5246239;28;20652;-61
2021/08/04 06:44:52;;;;;;;3.15;2.85;;;19.30;99.90;;;21.89;62.91;97739.25;5247581;28;20200;-61
2021/08/04 06:47:25;;;;;;;3.60;3.30;;;20.00;99.90;;;22.72;59.44;97743.50;5227893;28;20208;-63
2021/08/04 06:49:58;;;;;;;4.72;2.97;;;20.60;99.90;;;23.36;55.13;97741.28;5245190;28;20223;-62
2021/08/04 06:52:32;;;;;;;3.03;2.78;;;20.80;99.90;;;23.62;55.39;97737.91;5248114;28;20575;-61
2021/08/04 06:55:06;;;;;;;3.15;2.85;;;21.00;99.90;;;24.07;53.67;97745.91;5251543;28;20203;-61
2021/08/04 06:57:39;;;;;;;3.22;2.50;;;21.40;99.90;;;24.51;52.26;97748.56;5247372;28;20201;-61
2021/08/04 07:00:14;;;;;;;2.70;2.50;;;21.80;99.90;;;24.68;49.65;97753.78;5249018;28;20322;-63
2021/08/04 07:02:49;;;;;;;2.90;2.70;;;21.80;99.90;;;24.88;48.97;97745.91;5249134;28;20226;-61
2021/08/04 07:05:24;;;;;;;2.60;2.40;;;22.30;99.90;;;25.05;48.05;97744.13;5241066;28;20198;-61
2021/08/04 07:07:58;;;;;;;2.28;2.17;;;22.30;99.90;;;24.92;45.54;97740.69;5249030;28;20613;-61
2021/08/04 07:10:31;;;;;;;2.60;2.40;;;22.10;99.90;;;25.07;45.13;97739.78;5247413;28;20214;-62
2021/08/04 07:13:04;;;;;;;2.38;2.22;;;22.30;99.90;;;25.16;45.83;97745.00;5247385;28;20200;-57
2021/08/04 07:15:38;;;;;;;2.50;2.30;;;22.30;99.90;;;25.03;46.54;97742.41;5244824;28;20294;-54
2021/08/04 07:18:13;;;;;;;2.50;2.30;;;22.30;99.90;;;24.61;46.49;97749.41;5248667;28;20199;-55
2021/08/04 07:20:47;;;;;;;2.20;2.10;;;21.80;99.90;;;24.46;47.17;97743.31;5247754;28;20223;-51
2021/08/04 07:23:21;;;;;;;2.50;2.30;;;21.80;99.90;;;24.87;46.91;97736.34;5245338;28;20200;-52
2021/08/04 07:25:54;;;;;;;2.90;2.70;;;22.10;99.90;;;24.83;47.16;97745.03;5249219;28;20206;-53
2021/08/04 07:28:27;;;;;;;2.70;2.30;;;22.60;99.90;;;25.25;46.06;97744.13;5248604;28;20200;-57
2021/08/04 07:31:01;;;;;;;2.38;2.20;;;22.90;99.60;;;25.72;43.55;97739.56;5247810;28;20310;-53
2021/08/04 07:33:34;;;;;;;2.05;1.95;;;23.00;97.90;;;25.55;43.46;97734.38;5249103;28;20207;-56
2021/08/04 07:36:07;;;;;;;2.40;2.20;;;22.80;98.50;;;25.36;45.05;97737.09;5248740;28;20203;-56
2021/08/04 07:38:41;;;;;;;2.42;2.28;;;22.80;99.00;;;25.80;44.02;97743.00;5248712;28;20290;-54
2021/08/04 07:41:14;;;;;;;2.63;2.30;;;23.10;98.50;;;26.19;43.50;97741.06;5248069;28;20219;-56
2021/08/04 07:43:49;;;;;;;3.35;2.28;;;23.70;98.10;;;26.49;42.99;97746.03;5245382;28;20192;-56
2021/08/04 07:46:22;;;;;;;3.92;2.35;;;23.70;97.80;;;25.83;42.99;97743.00;5239656;28;20196;-57
2021/08/04 07:48:56;;;;;;;2.35;2.17;;;23.20;97.50;;;25.21;44.84;97741.50;5247510;28;20712;-55
2021/08/04 07:51:29;;;;;;;2.40;2.20;;;22.70;98.70;;;25.29;45.41;97740.59;5246503;28;20212;-54
2021/08/04 07:54:03;;;;;;;2.50;2.30;;;22.70;99.10;;;25.42;45.05;97738.81;5246749;28;20588;-55
2021/08/04 07:56:36;;;;;;;2.40;2.20;;;22.90;98.90;;;24.75;45.10;97738.94;5245640;28;20624;-56
2021/08/04 07:59:09;;;;;;;2.15;2.03;;;22.40;98.60;;;24.35;47.76;97741.53;5247430;28;20226;-55
2021/08/04 08:01:45;;;;;;;2.83;2.53;;;22.00;99.90;;;24.28;47.09;97741.53;5247545;28;20232;-56
2021/08/04 08:04:18;;;;;;;2.80;2.40;;;21.70;99.90;;;24.16;47.41;97740.69;5252815;22;20311;-63
2021/08/04 08:06:51;;;;;;;2.17;2.08;;;21.40;99.90;;;23.90;48.63;97738.88;5227074;28;20569;-62
2021/08/04 08:09:26;;;;;;;2.10;2.00;;;21.40;99.90;;;23.78;48.99;97724.06;5225693;28;20197;-62
2021/08/04 08:12:00;;;;;;;2.50;2.30;;;21.30;99.90;;;23.63;48.56;97721.38;5225773;28;20216;-62
2021/08/04 08:14:34;;;;;;;2.67;2.28;;;21.20;99.90;;;23.55;48.53;97720.47;5215099;28;20662;-62
2021/08/04 08:17:07;;;;;;;2.00;1.90;;;21.20;99.90;;;23.52;49.00;97728.28;5205816;28;20201;-62
2021/08/04 08:19:40;;;;;;;2.25;2.10;;;21.10;99.90;;;23.33;49.71;97724.75;5205733;28;20292;-62
2021/08/04 08:22:13;;;;;;;2.60;2.40;;;21.10;99.90;;;23.11;49.17;97735.06;5205394;28;20194;-63
2021/08/04 08:24:48;;;;;;;2.33;2.22;;;21.00;99.90;;;22.94;49.79;97727.13;5206500;28;20300;-62
2021/08/04 08:27:21;;;;;;;2.85;2.42;;;20.80;99.90;;;22.45;51.68;97725.91;5203914;28;20201;-64
2021/08/04 08:29:54;;;;;;;2.63;2.42;;;20.70;99.90;;;22.51;51.81;97723.34;5206541;28;20202;-62
2021/08/04 08:32:27;;;;;;;2.53;2.33;;;20.70;99.90;;;22.62;51.28;97728.66;5206082;28;20198;-62
2021/08/04 08:35:00;;;;;;;2.40;2.30;;;20.60;99.90;;;22.52;50.92;97732.94;5189127;28;20222;-63
2021/08/04 08:37:34;;;;;;;2.40;2.30;;;20.50;99.90;;;22.51;51.07;97730.31;5189049;28;20207;-62
2021/08/04 08:40:11;;;;;;;2.58;2.45;;;20.50;99.90;;;22.18;52.69;97721.38;5205161;28;20715;-63
2021/08/04 08:42:46;;;;;;;2.63;2.30;;;20.40;99.90;;;22.12;52.53;97721.25;5212063;28;20575;-62
2021/08/04 08:45:19;;;;;;;2.60;2.45;;;20.30;99.90;;;22.02;53.43;97731.59;5208097;28;20294;-62
2021/08/04 08:47:52;;;;;;;2.72;2.50;;;20.40;99.90;;;21.91;53.49;97724.53;5204014;28;20297;-62
2021/08/04 08:50:26;;;;;;;2.60;2.40;;;20.40;99.90;;;22.07;53.25;97725.56;5211891;28;20198;-62
2021/08/04 08:52:59;;;;;;;2.58;2.30;;;20.40;99.90;;;22.20;53.37;97730.03;5206580;28;20197;-63
2021/08/04 08:55:35;;;;;;;2.72;2.30;;;20.40;99.90;;;22.16;53.33;97728.25;5209316;28;20216;-62
2021/08/04 08:58:10;;;;;;;2.65;2.45;;;20.40;99.90;;;22.15;53.38;97731.69;5207988;28;20215;-62
2021/08/04 09:00:43;;;;;;;2.78;2.55;;;20.40;99.90;;;22.03;54.12;97722.03;5205512;28;20589;-63
2021/08/04 09:03:19;;;;;;;2.80;2.60;;;20.50;99.90;;;22.11;54.00;97741.22;5201525;28;20221;-62
2021/08/04 09:05:56;;;;;;;3.33;2.78;;;20.60;99.90;;;21.87;54.46;97735.78;5202250;28;20657;-62
2021/08/04 09:08:31;;;;;;;2.58;2.38;;;20.40;99.90;;;22.00;54.43;97735.88;5205994;28;20229;-62
2021/08/04 09:11:15;;;;;;;2.63;2.42;;;20.30;99.90;;;22.10;53.76;97723.00;5203962;28;20791;-61
2021/08/04 09:13:48;;;;;;;2.50;2.40;;;20.40;99.90;;;22.10;53.51;97717.78;5194432;28;20217;-63
2021/08/04 09:16:21;;;;;;;3.25;2.50;;;20.40;99.90;;;22.03;53.86;97720.34;5203562;28;20202;-62
2021/08/04 09:18:54;;;;;;;2.72;2.53;;;20.30;99.90;;;21.97;53.66;97709.84;5208409;28;20658;-63
2021/08/04 09:21:27;;;;;;;2.38;2.28;;;20.30;99.90;;;21.94;53.48;97707.22;5204672;28;20743;-63
2021/08/04 09:24:00;;;;;;;2.55;2.35;;;20.30;99.90;;;21.93;53.56;97715.00;5189911;28;20215;-61
2021/08/04 09:26:40;;;;;;;2.90;2.70;;;20.30;99.90;;;21.73;54.11;97722.63;5197756;28;20738;-62
2021/08/04 09:29:13;;;;;;;2.58;2.38;;;20.30;99.90;;;21.84;54.40;97708.00;5211754;28;20196;-60
2021/08/04 09:31:52;;;;;;;2.95;2.75;;;20.40;99.90;;;21.79;55.02;97707.06;5218549;28;20284;-63
2021/08/04 09:34:35;;;;;;;2.90;2.70;;;20.40;99.90;;;22.05;53.53;97702.09;5201346;28;20217;-61
2021/08/04 09:37:11;;;;;;;2.60;2.40;;;20.40;99.90;;;22.25;52.46;97694.50;5203852;28;20684;-62
2021/08/04 09:39:56;;;;;;;2.80;2.60;;;20.50;99.90;;;22.22;53.76;97689.28;5213272;28;20201;-62
2021/08/04 09:42:45;;;;;;;2.60;2.40;;;20.70;99.90;;;22.32;53.31;97693.72;5212420;28;20296;-62
2021/08/04 09:45:23;;;;;;;2.65;2.45;;;20.80;99.90;;;22.30;53.63;97682.41;5205070;28;20217;-62
2021/08/04 09:48:03;;;;;;;2.85;2.47;;;20.90;99.90;;;22.43;53.12;97680.75;5204011;28;20553;-63
2021/08/04 09:50:53;;;;;;;2.95;2.75;;;20.90;99.90;;;22.34;53.55;97685.88;5205275;28;20197;-62
2021/08/04 09:53:29;;;;;;;3.08;2.70;;;21.00;99.90;;;22.63;51.75;97683.47;5205371;28;20595;-63
2021/08/04 09:56:14;;;;;;;2.95;2.75;;;21.10;99.90;;;22.76;51.04;97677.50;5208436;28;20276;-64
2021/08/04 09:58:51;;;;;;;2.83;2.63;;;21.10;99.90;;;22.61;52.12;97680.03;5202735;28;20206;-61
2021/08/04 10:01:39;;;;;;;2.67;2.47;;;21.20;99.90;;;22.70;51.26;97674.84;5203591;28;20217;-62
2021/08/04 10:04:14;;;;;;;2.50;2.40;;;21.20;99.90;;;22.88;51.14;97680.16;5207533;28;20274;-61
2021/08/04 10:06:48;;;;;;;2.53;2.33;;;21.30;99.90;;;22.91;51.89;97674.97;5205129;28;20200;-62
2021/08/04 10:09:21;;;;;;;3.50;2.35;;;21.50;99.90;;;22.85;51.46;97681.88;5202051;28;20591;-62
2021/08/04 10:11:54;;;;;;;2.55;2.35;;;21.40;99.90;;;22.75;51.64;97673.16;5204390;28;20194;-61
2021/08/04 10:14:30;;;;;;;2.50;2.30;;;21.20;99.90;;;22.86;52.69;97675.81;5204166;28;20217;-61
2021/08/04 10:17:06;;;;;;;3.08;2.70;;;21.30;99.90;;;22.82;51.83;97677.53;5203722;28;20197;-63
2021/08/04 10:19:42;;;;;;;2.58;2.40;;;21.30;99.90;;;22.85;51.42;97671.47;5203566;28;20198;-61
2021/08/04 10:22:15;;;;;;;2.47;2.28;;;21.20;99.90;;;22.69;51.45;97673.09;5201986;28;20224;-63
2021/08/04 10:24:49;;;;;;;2.28;2.17;;;21.20;99.90;;;22.86;51.15;97676.69;5203938;28;20244;-61
2021/08/04 10:27:22;;;;;;;2.53;2.33;;;21.50;99.90;;;23.09;51.50;97670.72;5206315;28;20209;-62
2021/08/04 10:29:57;;;;;;;2.45;2.25;;;21.80;99.90;;;23.38;50.72;97670.88;5206725;28;20256;-62
2021/08/04 10:32:31;;;;;;;2.92;2.55;;;22.00;99.90;;;23.55;50.75;97663.97;5195914;28;20205;-62
2021/08/04 10:35:06;;;;;;;2.53;2.33;;;22.40;99.90;;;23.87;49.98;97665.78;5186067;28;20662;-62
2021/08/04 10:37:42;;;;;;;2.40;2.05;;;22.70;99.50;;;23.88;49.21;97662.28;5191290;28;20211;-63
2021/08/04 10:40:18;;;;;;;2.50;2.30;;;22.60;98.80;;;23.93;49.26;97657.09;5204833;28;20210;-64
2021/08/04 10:42:51;;;;;;;2.58;2.38;;;22.50;99.50;;;23.60;48.58;97650.91;5204665;28;20603;-62
2021/08/04 10:45:37;;;;;;;2.22;2.13;;;22.20;98.70;;;23.80;46.96;97650.97;5202481;28;20221;-63
2021/08/04 10:48:25;;;;;;;2.50;2.30;;;22.20;98.10;;;23.59;46.61;97651.78;5193007;28;20212;-61
2021/08/04 10:51:19;;;;;;;2.33;2.13;;;22.00;97.60;;;23.18;48.40;97647.31;5210424;28;20193;-61